Time;durP1;ratioP1;P1;durP2;ratioP2;P2;SDS_P1;SDS_P2;PMS_P1;PMS_P2;Temp;Humidity;BMP_temperature;BMP_pressure;BME280_temperature;BME280_humidity;BME280_pressure;Samples;Min_cycle;Max_cycle;Signal;HPM_P1;HPM_P2
2022/03/08 00:02:29;;;;;;;20.07;15.03;;;;;;;-3.94;66.80;95003.28;5030600;28;20566;-68
2022/03/08 00:05:15;;;;;;;18.30;13.57;;;;;;;-3.93;67.11;95016.25;5020973;28;20231;-68
2022/03/08 00:08:02;;;;;;;21.67;14.70;;;;;;;-4.00;67.31;95007.38;5037946;28;20201;-68
2022/03/08 00:10:48;;;;;;;25.00;15.80;;;;;;;-3.95;67.17;95004.41;5029178;28;20274;-68
2022/03/08 00:13:34;;;;;;;23.73;14.67;;;;;;;-4.03;67.37;95010.78;5028823;28;20680;-63
2022/03/08 00:16:20;;;;;;;18.20;13.77;;;;;;;-4.07;67.99;95008.06;5028563;28;20622;-64
2022/03/08 00:19:06;;;;;;;21.43;14.40;;;;;;;-4.13;67.76;94992.75;5011291;28;20682;-64
2022/03/08 00:21:52;;;;;;;21.50;14.80;;;;;;;-4.18;68.20;94999.16;5011244;28;20245;-64
2022/03/08 00:24:38;;;;;;;21.30;15.23;;;;;;;-4.14;68.36;94999.97;5027465;28;20632;-64
2022/03/08 00:27:24;;;;;;;25.13;16.07;;;;;;;-4.20;68.84;94997.97;5015005;28;20187;-63
2022/03/08 00:30:10;;;;;;;22.93;15.87;;;;;;;-4.21;68.62;94997.19;5025074;28;20580;-64
2022/03/08 00:32:56;;;;;;;21.43;15.00;;;;;;;-4.23;69.14;94991.50;5000701;28;20361;-62
2022/03/08 00:35:43;;;;;;;22.73;15.50;;;;;;;-4.24;68.96;94987.28;5028159;28;20187;-68
2022/03/08 00:38:29;;;;;;;21.27;14.83;;;;;;;-4.22;69.36;94990.34;4999595;28;20222;-63
2022/03/08 00:41:16;;;;;;;22.90;15.43;;;;;;;-4.28;69.43;94975.81;5029888;28;20210;-62
2022/03/08 00:44:03;;;;;;;23.23;15.30;;;;;;;-4.16;68.90;94980.16;5029398;28;20276;-61
2022/03/08 00:46:48;;;;;;;18.80;14.30;;;;;;;-4.22;68.88;94974.34;5015561;28;20207;-62
2022/03/08 00:49:36;;;;;;;21.27;14.93;;;;;;;-4.18;69.02;94982.41;5028587;28;20294;-62
2022/03/08 00:52:22;;;;;;;19.73;13.63;;;;;;;-4.19;69.11;94970.97;5014861;28;20274;-62
2022/03/08 00:55:08;;;;;;;20.73;14.47;;;;;;;-4.16;68.77;94969.47;5026855;28;20305;-64
2022/03/08 00:57:55;;;;;;;24.00;14.50;;;;;;;-4.15;68.75;94973.66;5023162;28;20970;-63
2022/03/08 01:00:41;;;;;;;19.93;13.67;;;;;;;-4.15;68.68;94979.00;5028035;28;20198;-63
2022/03/08 01:03:27;;;;;;;21.70;12.87;;;;;;;-4.12;68.46;94972.94;5026595;28;20222;-63
2022/03/08 01:06:13;;;;;;;21.40;14.13;;;;;;;-4.19;68.78;94976.28;5025424;28;20218;-68
2022/03/08 01:09:01;;;;;;;23.97;15.40;;;;;;;-4.21;68.89;94967.88;4996672;28;20221;-68
2022/03/08 01:11:47;;;;;;;24.40;16.03;;;;;;;-4.17;68.70;94965.25;5014210;28;20260;-64
2022/03/08 01:14:34;;;;;;;18.37;13.53;;;;;;;-4.22;69.19;94962.91;5027255;28;20591;-64
2022/03/08 01:17:23;;;;;;;20.07;14.83;;;;;;;-4.21;68.85;94959.88;5012288;28;20761;-64
2022/03/08 01:20:10;;;;;;;19.87;14.00;;;;;;;-4.17;69.06;94958.03;5023718;28;20321;-63
2022/03/08 01:22:56;;;;;;;22.80;15.23;;;;;;;-4.23;69.10;94958.72;5015321;28;20661;-66
2022/03/08 01:25:42;;;;;;;20.27;13.93;;;;;;;-4.27;69.44;94955.22;5027603;28;20227;-66
2022/03/08 01:28:28;;;;;;;19.70;13.27;;;;;;;-4.21;69.15;94959.13;5024119;28;20217;-65
2022/03/08 01:31:14;;;;;;;20.60;14.37;;;;;;;-4.32;69.44;94956.31;5013715;28;20222;-66
2022/03/08 01:34:01;;;;;;;25.60;15.30;;;;;;;-4.38;69.90;94944.44;5015158;28;20219;-66
2022/03/08 01:36:48;;;;;;;19.70;13.70;;;;;;;-4.23;69.91;94950.72;5027790;28;20191;-66
2022/03/08 01:39:34;;;;;;;20.80;14.13;;;;;;;-4.24;69.73;94957.94;5029437;28;20198;-66
2022/03/08 01:42:22;;;;;;;19.83;14.70;;;;;;;-4.16;69.51;94959.59;5028387;28;20214;-66
2022/03/08 01:45:09;;;;;;;22.27;14.83;;;;;;;-4.27;69.65;94949.91;5022986;28;20242;-64
2022/03/08 01:47:55;;;;;;;20.67;14.50;;;;;;;-4.28;69.88;94938.50;5014810;28;20365;-64
2022/03/08 01:50:41;;;;;;;19.93;13.10;;;;;;;-4.30;70.40;94950.63;5028699;28;20206;-63
2022/03/08 01:53:27;;;;;;;20.57;14.80;;;;;;;-4.32;70.15;94947.56;5026808;28;20222;-63
2022/03/08 01:56:13;;;;;;;24.67;15.07;;;;;;;-4.23;70.49;94948.06;5025167;28;20203;-63
2022/03/08 01:59:00;;;;;;;19.93;14.03;;;;;;;-4.19;70.25;94949.63;5022537;28;20554;-63
2022/03/08 02:01:46;;;;;;;21.53;14.83;;;;;;;-4.22;70.40;94942.38;5028492;28;20187;-63
2022/03/08 02:04:32;;;;;;;19.33;15.13;;;;;;;-4.29;71.20;94934.28;5019624;28;20246;-63
2022/03/08 02:07:18;;;;;;;23.17;16.33;;;;;;;-4.29;70.99;94941.50;5022098;28;20209;-63
2022/03/08 02:10:06;;;;;;;20.73;14.97;;;;;;;-4.38;71.51;94930.34;5030181;28;20602;-63
2022/03/08 02:12:52;;;;;;;22.30;15.53;;;;;;;-4.35;71.32;94934.97;5029647;28;20285;-68
2022/03/08 02:15:38;;;;;;;24.43;15.80;;;;;;;-4.38;71.63;94935.69;5024404;28;20205;-68
2022/03/08 02:18:24;;;;;;;23.87;17.20;;;;;;;-4.33;71.20;94924.72;5023489;28;20195;-68
2022/03/08 02:21:10;;;;;;;23.93;15.50;;;;;;;-4.37;71.45;94929.22;5027684;28;20208;-68
2022/03/08 02:23:56;;;;;;;20.30;14.43;;;;;;;-4.37;71.78;94915.88;5028330;28;20237;-68
2022/03/08 02:26:41;;;;;;;22.70;15.67;;;;;;;-4.35;71.68;94918.97;5030119;28;20222;-68
2022/03/08 02:29:28;;;;;;;21.77;14.60;;;;;;;-4.33;71.49;94906.06;5032458;28;20197;-68
2022/03/08 02:32:13;;;;;;;23.00;14.53;;;;;;;-4.33;71.30;94909.50;5032974;28;20264;-61
2022/03/08 02:35:08;;;;;;;22.50;14.77;;;;;;;-4.42;71.51;94895.66;5029971;28;20215;-62
2022/03/08 02:37:58;;;;;;;21.90;15.27;;;;;;;-4.53;71.98;94899.31;5033136;28;20650;-62
2022/03/08 02:40:45;;;;;;;19.63;14.07;;;;;;;-4.67;72.81;94889.25;5027489;28;20540;-62
2022/03/08 02:43:30;;;;;;;24.03;15.20;;;;;;;-4.71;72.61;94892.97;5033165;28;20218;-62
2022/03/08 02:46:17;;;;;;;20.27;15.00;;;;;;;-4.77;72.99;94889.88;5009569;28;20223;-66
2022/03/08 02:49:02;;;;;;;21.80;14.57;;;;;;;-4.69;72.47;94898.72;5032994;28;20199;-66
2022/03/08 02:51:48;;;;;;;21.13;13.50;;;;;;;-4.67;72.38;94896.47;5036642;28;20756;-66
2022/03/08 02:54:34;;;;;;;20.70;14.60;;;;;;;-4.73;72.27;94893.34;5028830;28;20277;-66
2022/03/08 02:57:20;;;;;;;21.63;14.90;;;;;;;-4.73;71.93;94888.00;5028625;28;20597;-66
2022/03/08 03:00:08;;;;;;;22.00;14.73;;;;;;;-4.79;72.38;94886.03;5014754;28;20280;-66
2022/03/08 03:02:55;;;;;;;21.27;14.40;;;;;;;-4.76;72.53;94894.06;5013165;28;20200;-66
2022/03/08 03:05:41;;;;;;;22.53;14.37;;;;;;;-4.74;72.06;94889.16;4998990;28;20207;-66
2022/03/08 03:08:27;;;;;;;23.43;14.57;;;;;;;-4.80;72.16;94890.56;5041411;28;20191;-66
2022/03/08 03:11:13;;;;;;;20.37;13.67;;;;;;;-4.74;72.23;94883.03;5025653;28;20693;-66
2022/03/08 03:13:59;;;;;;;19.63;14.10;;;;;;;-4.81;72.17;94875.72;5030739;28;20340;-66
2022/03/08 03:16:45;;;;;;;18.07;13.70;;;;;;;-4.82;72.33;94878.75;5017512;28;20199;-66
2022/03/08 03:19:30;;;;;;;21.43;14.23;;;;;;;-4.86;72.37;94880.59;5023592;28;20242;-66
2022/03/08 03:22:16;;;;;;;22.53;13.63;;;;;;;-4.86;72.44;94891.25;5022034;28;20199;-66
2022/03/08 03:25:04;;;;;;;18.30;12.87;;;;;;;-4.95;72.76;94884.28;5024455;28;20215;-66
2022/03/08 03:27:49;;;;;;;21.33;14.20;;;;;;;-4.76;72.70;94887.97;5017202;28;20221;-66
2022/03/08 03:30:35;;;;;;;19.07;13.53;;;;;;;-4.76;72.36;94885.28;5030874;28;20189;-66
2022/03/08 03:33:21;;;;;;;21.70;13.87;;;;;;;-4.71;72.06;94883.09;5032185;28;20211;-66
2022/03/08 03:36:07;;;;;;;21.43;13.70;;;;;;;-4.73;72.37;94880.03;5027976;28;20193;-66
2022/03/08 03:38:53;;;;;;;20.53;14.17;;;;;;;-4.54;72.76;94868.47;5015392;28;20301;-66
2022/03/08 03:41:39;;;;;;;19.10;13.73;;;;;;;-4.70;71.83;94875.88;5031811;28;20194;-66
2022/03/08 03:44:25;;;;;;;19.67;12.87;;;;;;;-4.69;72.29;94870.19;5029239;28;20223;-66
2022/03/08 03:47:11;;;;;;;19.10;13.30;;;;;;;-4.73;72.71;94876.59;5031733;28;20203;-66
2022/03/08 03:49:57;;;;;;;21.53;14.83;;;;;;;-4.68;73.17;94873.63;5032919;28;20205;-62
2022/03/08 03:52:43;;;;;;;20.43;13.60;;;;;;;-4.56;72.61;94870.72;5015538;28;20662;-63
2022/03/08 03:55:29;;;;;;;18.87;13.20;;;;;;;-4.73;72.44;94864.03;5027283;28;20240;-62
2022/03/08 03:58:15;;;;;;;19.87;13.57;;;;;;;-4.66;73.00;94879.34;5010862;28;20221;-62
2022/03/08 04:01:00;;;;;;;19.10;13.97;;;;;;;-4.71;72.22;94871.66;5024473;28;20518;-62
2022/03/08 04:03:46;;;;;;;20.97;13.87;;;;;;;-4.66;73.05;94876.69;5014906;28;20289;-62
2022/03/08 04:06:32;;;;;;;18.20;13.93;;;;;;;-4.59;72.26;94882.09;5029275;28;20242;-62
2022/03/08 04:09:18;;;;;;;21.07;13.87;;;;;;;-4.46;71.54;94878.09;5025957;28;20274;-62
2022/03/08 04:12:05;;;;;;;18.27;12.87;;;;;;;-4.40;71.09;94881.97;5014222;28;20237;-64
2022/03/08 04:14:51;;;;;;;17.53;13.20;;;;;;;-4.42;71.21;94879.66;5012300;28;20211;-64
2022/03/08 04:17:37;;;;;;;19.00;13.20;;;;;;;-4.28;71.28;94881.75;5030158;28;20217;-63
2022/03/08 04:20:23;;;;;;;19.03;12.63;;;;;;;-4.36;70.69;94880.88;5013952;28;20198;-68
2022/03/08 04:23:09;;;;;;;19.60;12.73;;;;;;;-4.40;70.80;94876.63;5025472;28;20823;-68
2022/03/08 04:25:55;;;;;;;20.83;12.73;;;;;;;-4.44;71.43;94876.59;5014030;28;20689;-66
2022/03/08 04:28:41;;;;;;;18.47;13.73;;;;;;;-4.26;71.46;94893.56;5029228;28;20662;-67
2022/03/08 04:31:27;;;;;;;16.47;11.87;;;;;;;-4.12;71.35;94885.72;5030909;28;20195;-66
2022/03/08 04:34:13;;;;;;;18.43;13.00;;;;;;;-4.22;71.36;94891.72;5026953;28;20211;-66
2022/03/08 04:36:58;;;;;;;17.80;11.93;;;;;;;-4.29;71.25;94893.50;5023013;28;20188;-67
2022/03/08 04:39:44;;;;;;;17.70;12.67;;;;;;;-4.35;71.96;94885.09;5030152;28;20191;-64
2022/03/08 04:42:30;;;;;;;20.53;12.77;;;;;;;-4.23;71.74;94892.84;5030668;28;20190;-63
2022/03/08 04:45:17;;;;;;;18.63;12.33;;;;;;;-4.28;72.05;94889.72;5027248;28;20215;-64
2022/03/08 04:48:04;;;;;;;19.90;13.67;;;;;;;-4.30;72.26;94878.66;5024495;28;20317;-64
2022/03/08 04:50:50;;;;;;;15.40;11.77;;;;;;;-4.35;72.67;94886.97;5028865;28;20250;-64
2022/03/08 04:53:35;;;;;;;19.93;12.50;;;;;;;-4.22;72.32;94877.59;5028341;28;20756;-66
2022/03/08 04:56:21;;;;;;;22.30;13.67;;;;;;;-4.22;72.06;94869.59;5026124;28;20286;-63
2022/03/08 04:59:07;;;;;;;19.70;13.60;;;;;;;-4.29;72.36;94877.53;5027382;28;20308;-63
2022/03/08 05:01:53;;;;;;;20.40;13.47;;;;;;;-4.24;72.15;94877.22;5031161;28;20195;-64
2022/03/08 05:04:39;;;;;;;21.13;13.57;;;;;;;-4.28;72.61;94879.84;5021286;28;20218;-63
2022/03/08 05:07:25;;;;;;;17.80;13.70;;;;;;;-4.19;72.36;94877.66;5028504;28;20766;-64
2022/03/08 05:10:12;;;;;;;20.30;14.07;;;;;;;-4.23;72.41;94882.19;5029684;28;20682;-63
2022/03/08 05:12:59;;;;;;;19.10;13.37;;;;;;;-4.25;72.48;94881.00;5018252;28;20753;-63
2022/03/08 05:15:48;;;;;;;21.83;13.60;;;;;;;-4.36;72.79;94888.13;5015270;28;20238;-63
2022/03/08 05:18:34;;;;;;;20.27;13.27;;;;;;;-4.46;73.67;94888.75;5015583;28;20278;-63
2022/03/08 05:21:20;;;;;;;18.57;12.37;;;;;;;-4.28;73.66;94893.19;5025989;28;20202;-62
2022/03/08 05:24:06;;;;;;;19.47;13.93;;;;;;;-4.26;73.71;94885.56;5013769;28;20218;-63
2022/03/08 05:26:52;;;;;;;20.07;12.83;;;;;;;-4.30;73.78;94876.78;5026043;28;20229;-63
2022/03/08 05:29:38;;;;;;;19.07;12.53;;;;;;;-4.15;74.76;94875.03;5010625;28;20956;-63
2022/03/08 05:32:24;;;;;;;17.37;12.03;;;;;;;-4.16;74.35;94878.84;5030101;28;20276;-64
2022/03/08 05:35:11;;;;;;;16.87;12.83;;;;;;;-4.14;73.71;94873.91;5025810;28;20540;-68
2022/03/08 05:37:57;;;;;;;20.20;13.63;;;;;;;-4.18;73.74;94865.09;4999321;28;20210;-66
2022/03/08 05:40:43;;;;;;;18.03;13.23;;;;;;;-4.20;75.30;94870.03;5024889;28;20191;-66
2022/03/08 05:43:29;;;;;;;18.57;12.33;;;;;;;-4.14;74.91;94858.66;5006622;28;20214;-66
2022/03/08 05:46:15;;;;;;;22.90;12.87;;;;;;;-4.17;75.18;94875.41;5030414;28;20233;-66
2022/03/08 05:49:01;;;;;;;16.00;12.50;;;;;;;-4.13;75.49;94872.78;5009797;28;20195;-66
2022/03/08 05:51:47;;;;;;;15.10;10.97;;;;;;;-4.17;76.38;94871.94;5021515;28;20190;-66
2022/03/08 05:54:32;;;;;;;16.93;12.20;;;;;;;-4.04;75.80;94874.00;5028634;28;20772;-66
2022/03/08 05:57:18;;;;;;;16.40;11.13;;;;;;;-3.88;75.59;94873.78;5026925;28;20195;-66
2022/03/08 06:00:06;;;;;;;17.33;10.57;;;;;;;-3.86;74.79;94884.88;5010782;28;20662;-66
2022/03/08 06:02:57;;;;;;;17.77;10.97;;;;;;;-3.84;74.66;94880.72;4996871;28;21090;-66
2022/03/08 06:05:43;;;;;;;18.43;11.80;;;;;;;-3.77;74.41;94882.69;5024914;28;20260;-66
2022/03/08 06:08:29;;;;;;;16.00;12.17;;;;;;;-3.88;73.87;94882.56;5032769;28;20205;-66
2022/03/08 06:11:16;;;;;;;16.10;12.07;;;;;;;-3.85;74.28;94883.72;5046729;28;20237;-66
2022/03/08 06:14:02;;;;;;;16.23;11.97;;;;;;;-3.79;74.09;94887.63;5027539;28;20272;-66
2022/03/08 06:16:48;;;;;;;18.07;12.37;;;;;;;-3.74;73.71;94896.06;5025614;28;20199;-66
2022/03/08 06:19:34;;;;;;;17.87;12.47;;;;;;;-3.63;73.64;94882.78;5027305;28;20207;-66
2022/03/08 06:22:20;;;;;;;15.00;11.33;;;;;;;-3.65;74.12;94876.31;5028218;28;20206;-66
2022/03/08 06:25:07;;;;;;;16.33;12.13;;;;;;;-3.53;73.72;94898.16;5006950;28;20726;-66
2022/03/08 06:27:53;;;;;;;18.47;11.37;;;;;;;-3.46;73.13;94894.78;5025272;28;21463;-61
2022/03/08 06:30:38;;;;;;;16.43;11.70;;;;;;;-3.60;73.63;94891.97;5027349;28;20228;-61
2022/03/08 06:33:26;;;;;;;15.37;11.47;;;;;;;-3.50;72.78;94885.97;5025173;28;20210;-61
2022/03/08 06:36:12;;;;;;;16.80;13.00;;;;;;;-3.49;71.88;94877.59;5016330;28;20195;-62
2022/03/08 06:38:58;;;;;;;17.50;11.90;;;;;;;-3.48;71.05;94889.81;5029920;28;20191;-61
2022/03/08 06:41:44;;;;;;;19.80;12.40;;;;;;;-3.48;71.08;94889.03;5027876;28;20620;-61
2022/03/08 06:44:31;;;;;;;16.10;11.27;;;;;;;-3.41;70.66;94891.78;5023181;28;20223;-61
2022/03/08 06:47:17;;;;;;;17.70;10.23;;;;;;;-3.49;70.54;94885.59;5027941;28;20199;-61
2022/03/08 06:50:04;;;;;;;14.73;11.87;;;;;;;-3.41;70.73;94884.53;5022437;28;20200;-61
2022/03/08 06:52:50;;;;;;;16.33;12.10;;;;;;;-3.54;70.15;94901.19;5027193;28;20660;-61
2022/03/08 06:55:36;;;;;;;15.53;11.90;;;;;;;-3.37;70.52;94900.56;5018208;28;20203;-61
2022/03/08 06:58:22;;;;;;;16.40;12.33;;;;;;;-3.32;70.18;94901.00;5024553;28;20228;-62
2022/03/08 07:01:08;;;;;;;18.13;12.10;;;;;;;-3.30;69.73;94901.41;5030525;28;20190;-61
2022/03/08 07:03:54;;;;;;;18.97;13.27;;;;;;;-3.18;69.28;94917.16;5032546;28;20360;-61
2022/03/08 07:06:40;;;;;;;17.57;11.90;;;;;;;-3.21;68.88;94904.56;5032001;28;20578;-61
2022/03/08 07:09:27;;;;;;;16.23;12.23;;;;;;;-3.07;68.73;94907.31;5033480;28;20195;-61
2022/03/08 07:12:13;;;;;;;18.53;13.57;;;;;;;-3.03;68.24;94904.66;5025342;28;20546;-61
2022/03/08 07:14:59;;;;;;;17.03;11.73;;;;;;;-2.93;67.71;94909.31;5016021;28;20682;-61
2022/03/08 07:17:46;;;;;;;17.10;12.13;;;;;;;-2.81;67.55;94920.50;5032362;28;20265;-61
2022/03/08 07:20:32;;;;;;;17.37;12.40;;;;;;;-2.84;67.88;94915.91;5029609;28;20226;-62
2022/03/08 07:23:18;;;;;;;16.10;11.97;;;;;;;-2.73;67.62;94903.34;5026236;28;20221;-61
2022/03/08 07:26:04;;;;;;;17.83;12.67;;;;;;;-2.63;66.58;94915.28;5019253;28;20324;-62
2022/03/08 07:28:50;;;;;;;17.20;12.30;;;;;;;-2.64;67.22;94911.81;5038392;28;20195;-61
2022/03/08 07:31:36;;;;;;;15.87;12.33;;;;;;;-2.54;66.95;94921.03;5031894;28;20262;-61
2022/03/08 07:34:22;;;;;;;16.13;12.67;;;;;;;-2.58;67.23;94913.00;5030374;28;20222;-61
2022/03/08 07:37:08;;;;;;;15.23;12.30;;;;;;;-2.29;67.55;94908.56;5031308;28;20528;-61
2022/03/08 07:39:55;;;;;;;15.43;11.23;;;;;;;-2.50;66.65;94913.81;5030819;28;20282;-61
2022/03/08 07:42:41;;;;;;;15.17;11.57;;;;;;;-2.26;65.71;94902.50;5003971;28;20636;-61
2022/03/08 07:45:27;;;;;;;17.47;12.20;;;;;;;-2.08;65.93;94908.66;5029841;28;20207;-61
2022/03/08 07:48:13;;;;;;;18.37;12.77;;;;;;;-1.81;65.05;94903.78;5030950;28;20419;-61
2022/03/08 07:50:59;;;;;;;16.00;11.17;;;;;;;-1.62;63.73;94906.91;5031111;28;20191;-61
2022/03/08 07:53:45;;;;;;;16.73;11.57;;;;;;;-1.53;64.04;94898.53;5025604;28;20237;-61
2022/03/08 07:56:30;;;;;;;13.43;10.63;;;;;;;-1.36;63.01;94908.50;5029639;28;20195;-62
2022/03/08 07:59:16;;;;;;;15.67;11.40;;;;;;;-1.32;63.21;94917.28;5030308;28;20313;-61
2022/03/08 08:02:02;;;;;;;14.03;11.13;;;;;;;-1.01;62.62;94919.22;5016575;28;20214;-62
2022/03/08 08:04:48;;;;;;;18.33;10.90;;;;;;;-0.71;61.21;94905.44;5029767;28;20210;-62
2022/03/08 08:07:35;;;;;;;16.00;11.40;;;;;;;-0.68;61.65;94907.34;5028184;28;20194;-62
2022/03/08 08:10:21;;;;;;;15.60;10.03;;;;;;;-0.94;60.16;94905.84;5026849;28;20198;-61
2022/03/08 08:13:07;;;;;;;13.40;10.47;;;;;;;-0.55;60.49;94911.94;5011301;28;21069;-60
2022/03/08 08:15:53;;;;;;;13.73;10.30;;;;;;;-0.16;59.48;94912.63;5030032;28;20195;-62
2022/03/08 08:18:39;;;;;;;20.50;10.50;;;;;;;-0.06;57.86;94913.72;5020463;28;20253;-62
2022/03/08 08:21:25;;;;;;;13.10;9.87;;;;;;;-0.02;58.10;94909.84;5029945;28;20228;-63
2022/03/08 08:24:11;;;;;;;15.53;10.07;;;;;;;-0.06;57.35;94903.75;5024743;28;20288;-64
2022/03/08 08:26:57;;;;;;;12.53;9.40;;;;;;;0.09;56.51;94909.81;5024331;28;20222;-62
2022/03/08 08:29:43;;;;;;;13.70;9.77;;;;;;;0.02;56.13;94890.31;5015051;28;20197;-62
2022/03/08 08:32:29;;;;;;;13.17;9.47;;;;;;;0.25;55.48;94912.84;5018517;28;20202;-62
2022/03/08 08:35:14;;;;;;;12.90;8.57;;;;;;;0.08;55.63;94904.84;5026512;28;20211;-62
2022/03/08 08:38:00;;;;;;;14.10;9.93;;;;;;;0.28;55.38;94914.75;5024604;28;20198;-62
2022/03/08 08:40:46;;;;;;;11.10;8.53;;;;;;;0.18;54.61;94918.25;5029608;28;20187;-62
2022/03/08 08:43:32;;;;;;;12.80;9.23;;;;;;;0.55;54.83;94909.59;5024743;28;20594;-62
2022/03/08 08:46:18;;;;;;;12.00;7.93;;;;;;;0.33;54.73;94917.00;5030146;28;20227;-62
2022/03/08 08:49:05;;;;;;;15.13;7.70;;;;;;;0.45;53.84;94911.19;5032476;28;20642;-61
2022/03/08 08:51:51;;;;;;;8.70;7.77;;;;;;;0.71;54.97;94918.72;5024747;28;20300;-62
2022/03/08 08:54:38;;;;;;;10.73;7.97;;;;;;;1.35;57.73;94919.03;5029667;28;20218;-62
2022/03/08 08:57:23;;;;;;;12.93;9.07;;;;;;;1.24;54.10;94910.25;5025295;28;20202;-62
2022/03/08 09:00:10;;;;;;;9.63;7.57;;;;;;;0.99;52.49;94905.09;5030544;28;20198;-62
2022/03/08 09:02:56;;;;;;;20.37;12.33;;;;;;;1.67;56.27;94903.34;5023243;28;20214;-62
2022/03/08 09:05:44;;;;;;;20.30;12.30;;;;;;;2.00;53.82;94907.97;5024844;28;20212;-62
2022/03/08 09:08:30;;;;;;;17.83;13.00;;;;;;;2.21;52.62;94899.66;5003427;28;20207;-62
2022/03/08 09:11:16;;;;;;;8.30;6.53;;;;;;;1.60;50.04;94902.63;5030324;28;20191;-61
2022/03/08 09:14:02;;;;;;;10.47;7.47;;;;;;;1.61;50.12;94894.19;5028571;28;20257;-62
2022/03/08 09:16:48;;;;;;;11.20;7.97;;;;;;;2.32;52.35;94894.91;5031048;28;20253;-62
2022/03/08 09:19:34;;;;;;;8.83;7.27;;;;;;;2.25;49.13;94891.53;5028035;28;20274;-62
2022/03/08 09:22:20;;;;;;;8.57;7.43;;;;;;;1.55;48.74;94887.69;5031356;28;20748;-61
2022/03/08 09:25:08;;;;;;;10.63;7.20;;;;;;;1.81;49.54;94883.59;5024977;28;20265;-61
2022/03/08 09:27:53;;;;;;;9.73;6.87;;;;;;;2.04;48.90;94889.09;5028130;28;20661;-62
2022/03/08 09:30:41;;;;;;;8.43;7.27;;;;;;;2.26;48.06;94896.53;5027495;28;20183;-62
2022/03/08 09:33:28;;;;;;;9.83;5.70;;;;;;;2.21;46.92;94896.19;5028666;28;20709;-62
2022/03/08 09:36:14;;;;;;;7.43;6.50;;;;;;;2.19;46.58;94885.06;5027971;28;20685;-62
2022/03/08 09:39:00;;;;;;;6.40;5.47;;;;;;;2.50;46.81;94897.38;5023698;28;20678;-62
2022/03/08 09:41:51;;;;;;;7.27;5.20;;;;;;;2.23;46.07;94885.78;5030253;28;20773;-62
2022/03/08 09:44:37;;;;;;;13.20;6.60;;;;;;;2.47;46.22;94892.78;5028019;28;20589;-62
2022/03/08 09:47:23;;;;;;;13.13;7.07;;;;;;;2.42;45.21;94894.03;5028767;28;20201;-62
2022/03/08 09:50:12;;;;;;;7.33;6.50;;;;;;;2.58;45.46;94895.34;5023913;28;20243;-62
2022/03/08 09:52:58;;;;;;;6.40;5.30;;;;;;;2.78;44.90;94902.38;5029080;28;20214;-62
2022/03/08 09:55:44;;;;;;;7.60;5.53;;;;;;;2.86;44.60;94911.91;5012855;28;20186;-62
2022/03/08 09:58:31;;;;;;;6.90;6.20;;;;;;;2.64;44.14;94902.59;5026373;28;20262;-61
2022/03/08 10:01:17;;;;;;;8.37;5.90;;;;;;;2.78;44.12;94899.69;5030669;28;20599;-66
2022/03/08 10:04:03;;;;;;;9.23;6.47;;;;;;;2.66;44.63;94897.56;5014578;28;20222;-66
2022/03/08 10:06:50;;;;;;;10.07;6.33;;;;;;;2.85;44.97;94888.03;5031345;28;20233;-66
2022/03/08 10:09:36;;;;;;;8.13;6.30;;;;;;;2.68;44.76;94897.13;5016164;28;20202;-66
2022/03/08 10:12:22;;;;;;;9.50;6.73;;;;;;;2.60;45.35;94882.25;5008240;28;20204;-66
2022/03/08 10:15:18;;;;;;;8.83;6.83;;;;;;;2.68;45.66;94891.75;5021001;28;20293;-66
2022/03/08 10:18:05;;;;;;;11.00;6.00;;;;;;;3.11;45.55;94881.84;5011013;28;20245;-66
2022/03/08 10:20:51;;;;;;;7.57;6.30;;;;;;;3.41;44.55;94887.91;5013679;28;20681;-67
2022/03/08 10:23:41;;;;;;;14.50;6.40;;;;;;;3.84;43.60;94876.34;5026959;28;20222;-66
2022/03/08 10:26:28;;;;;;;7.93;5.90;;;;;;;3.89;43.90;94875.84;5025560;28;20248;-66
2022/03/08 10:29:23;;;;;;;7.97;5.97;;;;;;;3.76;43.68;94864.91;5028697;28;20195;-67
2022/03/08 10:32:19;;;;;;;7.30;6.17;;;;;;;3.90;44.13;94875.47;5029512;28;20199;-66
2022/03/08 10:35:07;;;;;;;7.10;5.87;;;;;;;3.98;44.56;94859.88;5014231;28;20286;-68
2022/03/08 10:38:00;;;;;;;7.00;6.30;;;;;;;4.08;44.13;94869.72;5033124;28;20223;-68
2022/03/08 10:40:46;;;;;;;7.10;5.93;;;;;;;4.26;42.88;94865.47;5016532;28;20199;-68
2022/03/08 10:43:47;;;;;;;5.60;4.80;;;;;;;4.45;42.95;94869.31;5033301;28;20700;-68
2022/03/08 10:46:33;;;;;;;8.50;5.10;;;;;;;4.30;41.72;94863.47;5032593;28;20215;-68
2022/03/08 10:49:20;;;;;;;7.00;5.47;;;;;;;4.00;41.96;94852.88;5032596;28;20304;-68
2022/03/08 10:52:06;;;;;;;7.80;5.77;;;;;;;3.85;42.54;94845.47;5032340;28;20278;-62
2022/03/08 10:54:53;;;;;;;6.20;4.93;;;;;;;4.07;41.50;94852.75;5027744;28;20294;-61
2022/03/08 10:57:41;;;;;;;9.50;4.90;;;;;;;4.24;40.69;94859.72;5033259;28;20763;-62
2022/03/08 11:00:32;;;;;;;6.53;4.30;;;;;;;4.17;40.54;94851.78;5036114;28;20203;-62
2022/03/08 11:03:21;;;;;;;6.03;4.23;;;;;;;4.62;40.41;94849.25;5029633;28;20230;-62
2022/03/08 11:06:07;;;;;;;6.87;4.30;;;;;;;4.55;38.51;94844.00;5023483;28;20302;-62
2022/03/08 11:08:54;;;;;;;5.80;4.70;;;;;;;4.49;38.87;94846.47;5034574;28;20199;-61
2022/03/08 11:11:40;;;;;;;6.77;4.63;;;;;;;4.75;40.46;94850.88;5032752;28;20673;-62
2022/03/08 11:14:26;;;;;;;10.27;5.13;;;;;;;4.69;40.51;94847.19;5028659;28;20215;-62
2022/03/08 11:17:11;;;;;;;5.27;4.73;;;;;;;4.70;39.72;94839.81;5033684;28;20187;-62
2022/03/08 11:19:58;;;;;;;5.23;4.60;;;;;;;4.80;38.98;94846.94;5017974;28;20195;-62
2022/03/08 11:22:47;;;;;;;6.13;4.40;;;;;;;4.99;39.60;94843.38;5026731;28;20264;-62
2022/03/08 11:25:36;;;;;;;5.97;4.20;;;;;;;5.01;38.64;94840.25;5017211;28;20227;-62
2022/03/08 11:28:22;;;;;;;7.67;4.93;;;;;;;4.74;38.80;94849.38;5029714;28;20184;-62
2022/03/08 11:31:10;;;;;;;6.57;5.10;;;;;;;5.19;39.20;94840.59;5033475;28;20206;-62
2022/03/08 11:34:01;;;;;;;11.83;5.13;;;;;;;4.97;39.45;94841.09;5013371;28;20227;-61
2022/03/08 11:37:01;;;;;;;6.30;4.40;;;;;;;4.99;39.09;94835.25;5031084;28;20183;-62
2022/03/08 11:40:12;;;;;;;11.60;4.90;;;;;;;4.84;38.78;94851.09;5016191;28;20191;-62
2022/03/08 11:43:04;;;;;;;5.97;4.27;;;;;;;5.01;38.80;94848.38;5025536;28;20203;-61
2022/03/08 11:45:50;;;;;;;5.57;3.90;;;;;;;5.01;37.69;94832.13;5023315;28;20231;-64
2022/03/08 11:48:53;;;;;;;6.60;3.90;;;;;;;5.05;37.30;94836.28;5033250;28;20570;-64
2022/03/08 11:51:39;;;;;;;5.17;4.30;;;;;;;5.26;37.52;94835.03;5026674;28;20754;-63
2022/03/08 11:54:26;;;;;;;6.73;4.37;;;;;;;5.47;37.01;94835.25;5030955;28;20251;-64
2022/03/08 11:57:17;;;;;;;8.50;3.73;;;;;;;5.38;37.53;94821.53;5026353;28;20203;-63
2022/03/08 12:00:25;;;;;;;7.13;3.80;;;;;;;5.54;36.95;94823.47;5013831;28;20210;-64
2022/03/08 12:03:35;;;;;;;4.40;3.70;;;;;;;5.45;36.59;94817.88;5011443;28;20687;-64
2022/03/08 12:06:35;;;;;;;6.00;3.67;;;;;;;5.74;36.86;94819.44;5029349;28;20237;-64
2022/03/08 12:09:22;;;;;;;9.40;4.00;;;;;;;5.92;36.82;94813.59;5024022;28;20641;-64
2022/03/08 12:12:08;;;;;;;5.57;3.50;;;;;;;5.94;36.59;94819.31;5018867;28;20642;-64
2022/03/08 12:15:02;;;;;;;5.13;3.87;;;;;;;5.93;36.46;94824.00;5016285;28;20229;-64
2022/03/08 12:18:17;;;;;;;4.60;3.53;;;;;;;5.95;36.20;94815.44;5031545;28;20203;-65
2022/03/08 12:21:21;;;;;;;5.83;3.83;;;;;;;6.12;35.67;94822.31;5017002;28;20274;-64
2022/03/08 12:24:19;;;;;;;4.53;3.63;;;;;;;6.00;35.85;94818.38;5026590;28;20218;-64
2022/03/08 12:27:05;;;;;;;7.27;3.47;;;;;;;6.16;36.04;94822.94;5027061;28;20226;-62
2022/03/08 12:30:05;;;;;;;7.87;3.97;;;;;;;6.23;35.28;94811.16;5001282;28;20207;-63
2022/03/08 12:32:56;;;;;;;3.93;3.53;;;;;;;5.93;35.69;94801.53;5023441;28;20996;-62
2022/03/08 12:35:52;;;;;;;4.90;3.73;;;;;;;5.69;35.73;94806.41;5011641;28;20675;-62
2022/03/08 12:38:39;;;;;;;4.23;3.80;;;;;;;5.51;35.18;94811.56;5025052;28;20195;-62
2022/03/08 12:41:27;;;;;;;3.93;3.50;;;;;;;5.35;34.63;94799.97;5010043;28;20206;-62
2022/03/08 12:44:20;;;;;;;5.43;3.87;;;;;;;5.49;34.81;94803.09;5016771;28;20307;-62
2022/03/08 12:47:06;;;;;;;5.40;3.63;;;;;;;5.53;34.74;94800.28;5014166;28;20226;-67
2022/03/08 12:49:52;;;;;;;5.40;3.87;;;;;;;5.39;35.36;94798.72;5002915;28;20226;-68
2022/03/08 12:53:05;;;;;;;5.90;3.97;;;;;;;5.68;35.58;94802.19;5031190;28;20274;-68
2022/03/08 12:55:53;;;;;;;7.00;4.27;;;;;;;5.69;35.44;94803.72;5026340;28;20249;-68
2022/03/08 12:58:41;;;;;;;5.27;3.93;;;;;;;5.90;35.93;94797.75;5028409;28;20221;-68